createdAt,value
2023-04-02T00:00:54.018Z,48.72
2023-04-02T00:01:54.121Z,48.71
2023-04-02T00:02:54.201Z,48.65
2023-04-02T00:03:54.345Z,48.25
2023-04-02T00:04:54.229Z,47.87
2023-04-02T00:05:54.159Z,47.85
2023-04-02T00:06:54.230Z,47.98
2023-04-02T00:07:54.223Z,47.91
2023-04-02T00:08:54.193Z,47.97
2023-04-02T00:09:54.244Z,47.78
2023-04-02T00:10:54.161Z,47.43
2023-04-02T00:11:54.164Z,47.70
2023-04-02T00:12:54.128Z,47.73
2023-04-02T00:13:54.182Z,47.89
2023-04-02T00:14:54.120Z,48.05
2023-04-02T00:15:54.129Z,48.05
2023-04-02T00:16:54.139Z,47.92
2023-04-02T00:17:54.175Z,47.83
2023-04-02T00:18:54.207Z,47.73
2023-04-02T00:19:54.126Z,47.77
2023-04-02T00:20:54.128Z,48.03
2023-04-02T00:21:54.161Z,48.07
2023-04-02T00:22:54.079Z,48.04
2023-04-02T00:23:54.092Z,48.08
2023-04-02T00:24:54.052Z,48.13
2023-04-02T00:25:54.087Z,48.42
2023-04-02T00:26:54.174Z,48.72
2023-04-02T00:27:54.104Z,48.83
2023-04-02T00:28:54.785Z,48.77
2023-04-02T00:29:54.121Z,48.65
2023-04-02T00:30:54.034Z,48.70
2023-04-02T00:31:54.116Z,48.71
2023-04-02T00:32:54.174Z,49.64
2023-04-02T00:33:54.055Z,50.49
2023-04-02T00:34:54.915Z,51.53
2023-04-02T00:35:54.109Z,51.79
2023-04-02T00:36:53.992Z,52.04
2023-04-02T00:37:54.019Z,52.20
2023-04-02T00:38:54.005Z,52.04
2023-04-02T00:39:53.965Z,52.08
2023-04-02T00:40:54.009Z,51.55
2023-04-02T00:41:53.993Z,51.12
2023-04-02T00:43:01.553Z,50.75
2023-04-02T00:43:53.958Z,50.44
2023-04-02T00:44:54.011Z,50.40
2023-04-02T00:45:53.998Z,50.55
2023-04-02T00:46:53.958Z,50.68
2023-04-02T00:47:53.975Z,50.99
2023-04-02T00:48:53.977Z,50.90
2023-04-02T00:49:53.939Z,50.67
2023-04-02T00:50:53.957Z,50.35
2023-04-02T00:51:53.943Z,50.20
2023-04-02T00:52:53.945Z,49.91
2023-04-02T00:53:54.925Z,49.59
2023-04-02T00:54:53.871Z,49.84
2023-04-02T00:55:53.853Z,49.75
2023-04-02T00:56:53.914Z,49.34
2023-04-02T00:57:53.944Z,49.12
2023-04-02T00:58:53.847Z,49.02
2023-04-02T00:59:53.851Z,49.11
2023-04-02T01:00:53.865Z,49.40
2023-04-02T01:01:53.808Z,49.45
2023-04-02T01:02:53.978Z,49.37
2023-04-02T01:03:53.913Z,49.19
2023-04-02T01:04:53.845Z,49.16
2023-04-02T01:05:53.929Z,49.73
2023-04-02T01:06:53.854Z,50.16
2023-04-02T01:07:53.907Z,50.67
2023-04-02T01:08:53.835Z,50.74
2023-04-02T01:09:54.387Z,50.47
2023-04-02T01:10:53.860Z,50.41
2023-04-02T01:11:53.882Z,50.08
2023-04-02T01:12:53.877Z,49.73
2023-04-02T01:13:53.868Z,49.16
2023-04-02T01:14:53.868Z,49.47
2023-04-02T01:15:53.957Z,49.59
2023-04-02T01:16:54.113Z,49.88
2023-04-02T01:17:53.919Z,49.76
2023-04-02T01:18:53.975Z,49.98
2023-04-02T01:19:53.924Z,49.90
2023-04-02T01:20:53.945Z,49.59
2023-04-02T01:21:53.954Z,49.23
2023-04-02T01:22:54.002Z,49.96
2023-04-02T01:23:54.006Z,50.28
2023-04-02T01:24:53.958Z,49.82
2023-04-02T01:25:53.966Z,49.57
2023-04-02T01:26:53.968Z,49.34
2023-04-02T01:27:53.967Z,49.49
2023-04-02T01:28:53.966Z,49.39
2023-04-02T01:29:54.051Z,49.95
2023-04-02T01:30:54.004Z,50.42
2023-04-02T01:31:53.940Z,50.58
2023-04-02T01:32:54.020Z,50.47
2023-04-02T01:33:53.932Z,50.69
2023-04-02T01:34:54.017Z,50.24
2023-04-02T01:35:53.960Z,50.00
2023-04-02T01:36:53.861Z,49.65
2023-04-02T01:37:53.899Z,49.42
2023-04-02T01:38:53.885Z,49.44
2023-04-02T01:39:53.891Z,49.56
2023-04-02T01:40:53.919Z,49.97
2023-04-02T01:41:53.879Z,50.11
2023-04-02T01:42:53.879Z,49.97
2023-04-02T01:43:54.398Z,49.59
2023-04-02T01:44:53.894Z,49.43
2023-04-02T01:45:53.878Z,49.41
2023-04-02T01:46:55.257Z,48.89
2023-04-02T01:47:53.980Z,48.62
2023-04-02T01:48:53.982Z,48.65
2023-04-02T01:49:53.911Z,48.76
2023-04-02T01:50:53.896Z,48.82
2023-04-02T01:51:53.874Z,49.52
2023-04-02T01:52:54.352Z,49.51
2023-04-02T01:53:53.902Z,49.22
2023-04-02T01:54:53.881Z,48.75
2023-04-02T01:55:53.869Z,48.56
2023-04-02T01:56:53.994Z,48.44
2023-04-02T01:57:53.976Z,48.26
2023-04-02T01:58:53.881Z,48.52
2023-04-02T01:59:53.976Z,48.50
2023-04-02T02:00:53.962Z,48.38
2023-04-02T02:01:53.897Z,48.41
2023-04-02T02:02:53.948Z,48.44
2023-04-02T02:03:53.907Z,48.44
2023-04-02T02:04:53.895Z,48.50
2023-04-02T02:05:53.907Z,48.52
2023-04-02T02:06:53.833Z,48.55
2023-04-02T02:07:53.922Z,48.49
2023-04-02T02:08:54.025Z,48.59
2023-04-02T02:09:54.009Z,48.56
2023-04-02T02:10:54.074Z,48.49
2023-04-02T02:11:54.012Z,49.23
2023-04-02T02:12:54.042Z,49.77
2023-04-02T02:13:54.097Z,50.01
2023-04-02T02:14:54.184Z,50.15
2023-04-02T02:15:54.133Z,50.11
2023-04-02T02:16:54.180Z,50.40
2023-04-02T02:17:54.338Z,50.48
2023-04-02T02:18:54.198Z,50.67
2023-04-02T02:19:54.212Z,50.66
2023-04-02T02:20:54.169Z,50.59
2023-04-02T02:21:54.249Z,50.64
2023-04-02T02:22:54.206Z,50.71
2023-04-02T02:23:54.177Z,50.76
2023-04-02T02:24:55.014Z,50.77
2023-04-02T02:25:54.207Z,50.92
2023-04-02T02:26:54.265Z,51.89
2023-04-02T02:27:54.957Z,52.03
2023-04-02T02:28:54.274Z,52.15
2023-04-02T02:29:54.292Z,52.05
2023-04-02T02:30:54.213Z,52.11
2023-04-02T02:31:54.190Z,52.18
2023-04-02T02:32:54.370Z,52.19
2023-04-02T02:33:54.210Z,51.98
2023-04-02T02:34:54.202Z,52.01
2023-04-02T02:35:54.161Z,51.93
2023-04-02T02:36:54.200Z,51.86
2023-04-02T02:37:54.277Z,51.97
2023-04-02T02:38:54.520Z,52.09
2023-04-02T02:39:54.361Z,52.08
2023-04-02T02:40:54.369Z,52.18
2023-04-02T02:41:54.386Z,52.21
2023-04-02T02:42:54.487Z,52.24
2023-04-02T02:43:54.516Z,52.30
2023-04-02T02:44:54.589Z,52.37
2023-04-02T02:45:54.633Z,52.46
2023-04-02T02:46:54.650Z,52.41
2023-04-02T02:47:54.738Z,52.38
2023-04-02T02:48:54.742Z,52.23
2023-04-02T02:49:54.690Z,52.04
2023-04-02T02:50:54.656Z,52.19
2023-04-02T02:51:54.786Z,52.10
2023-04-02T02:52:54.953Z,52.16
2023-04-02T02:53:54.866Z,52.11
2023-04-02T02:54:54.885Z,52.09
2023-04-02T02:55:54.888Z,52.09
2023-04-02T02:56:55.014Z,52.41
2023-04-02T02:57:54.856Z,52.35
2023-04-02T02:58:54.919Z,52.43
2023-04-02T02:59:54.840Z,52.34
2023-04-02T03:00:54.861Z,52.19
2023-04-02T03:01:54.829Z,52.44
2023-04-02T03:02:55.061Z,52.44
2023-04-02T03:03:55.016Z,52.82
2023-04-02T03:04:54.980Z,53.69
2023-04-02T03:05:54.965Z,54.07
2023-04-02T03:06:55.067Z,54.46
2023-04-02T03:07:55.105Z,55.01
2023-04-02T03:08:55.137Z,55.33
2023-04-02T03:09:55.181Z,55.59
2023-04-02T03:10:55.184Z,55.91
2023-04-02T03:11:55.222Z,56.38
2023-04-02T03:12:55.222Z,56.67
2023-04-02T03:13:55.212Z,57.13
2023-04-02T03:14:55.228Z,56.69
2023-04-02T03:15:55.267Z,56.16
2023-04-02T03:16:55.235Z,55.72
2023-04-02T03:17:55.342Z,55.19
2023-04-02T03:18:55.280Z,54.76
2023-04-02T03:19:55.300Z,54.93
2023-04-02T03:20:55.256Z,55.22
2023-04-02T03:21:55.304Z,55.04
2023-04-02T03:22:55.324Z,55.03
2023-04-02T03:23:55.305Z,55.16
2023-04-02T03:24:55.315Z,55.29
2023-04-02T03:25:55.318Z,55.52
2023-04-02T03:26:55.411Z,55.94
2023-04-02T03:27:55.340Z,55.70
2023-04-02T03:28:55.349Z,54.98
2023-04-02T03:29:55.414Z,54.36
2023-04-02T03:30:55.403Z,53.92
2023-04-02T03:31:55.360Z,53.59
2023-04-02T03:32:55.401Z,53.44
2023-04-02T03:33:55.377Z,53.16
2023-04-02T03:34:55.361Z,52.99
2023-04-02T03:35:55.344Z,52.88
2023-04-02T03:36:55.359Z,52.77
2023-04-02T03:37:55.316Z,52.76
2023-04-02T03:38:55.301Z,52.65
2023-04-02T03:39:55.336Z,52.66
2023-04-02T03:40:55.345Z,52.68
2023-04-02T03:41:55.329Z,52.61
2023-04-02T03:42:55.414Z,52.64
2023-04-02T03:43:55.296Z,52.64
2023-04-02T03:44:55.295Z,52.56
2023-04-02T03:45:55.315Z,52.63
2023-04-02T03:46:55.281Z,53.25
2023-04-02T03:47:55.290Z,53.92
2023-04-02T03:48:55.363Z,53.81
2023-04-02T03:49:55.261Z,53.81
2023-04-02T03:50:55.263Z,53.65
2023-04-02T03:51:55.294Z,53.56
2023-04-02T03:52:55.236Z,53.37
2023-04-02T03:53:55.280Z,53.24
2023-04-02T03:54:55.284Z,52.89
2023-04-02T03:55:55.278Z,52.74
2023-04-02T03:56:55.410Z,52.47
2023-04-02T03:57:55.323Z,52.50
2023-04-02T03:58:55.337Z,52.57
2023-04-02T03:59:55.270Z,52.60
2023-04-02T04:00:55.248Z,52.48
2023-04-02T04:01:55.363Z,52.38
2023-04-02T04:02:55.374Z,52.31
2023-04-02T04:03:55.336Z,52.32
2023-04-02T04:04:55.346Z,52.55
2023-04-02T04:05:55.236Z,52.67
2023-04-02T04:06:55.216Z,52.61
2023-04-02T04:07:55.220Z,52.74
2023-04-02T04:08:55.282Z,52.85
2023-04-02T04:09:55.333Z,52.85
2023-04-02T04:10:55.445Z,52.75
2023-04-02T04:11:55.413Z,52.74
2023-04-02T04:12:55.445Z,52.74
2023-04-02T04:13:55.452Z,52.75
2023-04-02T04:14:55.553Z,52.72
2023-04-02T04:15:55.550Z,52.73
2023-04-02T04:16:55.702Z,52.77
2023-04-02T04:17:55.616Z,52.78
2023-04-02T04:18:55.547Z,52.79
2023-04-02T04:19:55.537Z,52.81
2023-04-02T04:20:55.492Z,52.81
2023-04-02T04:21:55.552Z,52.85
2023-04-02T04:22:55.466Z,52.90
2023-04-02T04:23:55.478Z,52.99
2023-04-02T04:24:55.493Z,53.04
2023-04-02T04:25:55.448Z,53.34
2023-04-02T04:26:55.486Z,53.50
2023-04-02T04:27:55.448Z,53.53
2023-04-02T04:28:55.431Z,53.52
2023-04-02T04:29:56.411Z,53.68
2023-04-02T04:30:55.437Z,53.64
2023-04-02T04:31:55.655Z,53.57
2023-04-02T04:32:55.452Z,53.67
2023-04-02T04:33:55.450Z,53.78
2023-04-02T04:34:55.427Z,53.96
2023-04-02T04:35:55.398Z,54.12
2023-04-02T04:36:55.382Z,54.45
2023-04-02T04:37:55.488Z,54.49
2023-04-02T04:38:55.388Z,54.45
2023-04-02T04:39:55.406Z,54.59
2023-04-02T04:40:55.403Z,54.46
2023-04-02T04:41:55.406Z,54.26
2023-04-02T04:42:55.333Z,54.37
2023-04-02T04:43:55.373Z,54.36
2023-04-02T04:44:55.445Z,54.88
2023-04-02T04:45:55.377Z,55.26
2023-04-02T04:46:55.348Z,55.57
2023-04-02T04:47:55.391Z,55.36
2023-04-02T04:48:55.968Z,55.06
2023-04-02T04:49:55.425Z,54.96
2023-04-02T04:50:55.418Z,54.95
2023-04-02T04:51:55.547Z,55.15
2023-04-02T04:52:55.498Z,55.14
2023-04-02T04:53:55.527Z,55.24
2023-04-02T04:54:55.475Z,55.50
2023-04-02T04:55:55.573Z,55.61
2023-04-02T04:56:55.449Z,55.91
2023-04-02T04:57:55.537Z,56.34
2023-04-02T04:58:55.548Z,56.44
2023-04-02T04:59:55.455Z,56.34
2023-04-02T05:00:55.432Z,56.16
2023-04-02T05:01:55.499Z,55.89
2023-04-02T05:02:55.417Z,56.14
2023-04-02T05:03:55.464Z,56.73
2023-04-02T05:04:55.508Z,57.08
2023-04-02T05:05:55.391Z,57.02
2023-04-02T05:06:55.413Z,57.41
2023-04-02T05:07:56.759Z,57.79
2023-04-02T05:08:55.529Z,58.25
2023-04-02T05:09:55.625Z,57.89
2023-04-02T05:10:55.709Z,57.40
2023-04-02T05:11:55.693Z,57.32
2023-04-02T05:12:55.759Z,57.54
2023-04-02T05:13:55.856Z,57.86
2023-04-02T05:14:55.857Z,57.97
2023-04-02T05:15:55.836Z,57.85
2023-04-02T05:16:55.792Z,58.12
2023-04-02T05:17:55.891Z,58.29
2023-04-02T05:18:55.786Z,57.80
2023-04-02T05:19:55.860Z,57.22
2023-04-02T05:20:55.757Z,56.55
2023-04-02T05:21:55.827Z,56.03
2023-04-02T05:22:55.810Z,55.58
2023-04-02T05:23:55.768Z,55.24
2023-04-02T05:24:55.784Z,55.09
2023-04-02T05:25:55.754Z,54.87
2023-04-02T05:26:55.743Z,54.80
2023-04-02T05:27:55.837Z,54.81
2023-04-02T05:28:55.758Z,54.72
2023-04-02T05:29:55.706Z,54.66
2023-04-02T05:30:55.777Z,54.57
2023-04-02T05:31:55.823Z,54.58
2023-04-02T05:32:55.831Z,54.55
2023-04-02T05:33:55.826Z,54.46
2023-04-02T05:34:55.872Z,54.46
2023-04-02T05:35:55.904Z,54.44
2023-04-02T05:36:55.816Z,54.26
2023-04-02T05:37:55.873Z,54.21
2023-04-02T05:38:56.004Z,54.08
2023-04-02T05:39:55.931Z,53.94
2023-04-02T05:40:55.950Z,54.03
2023-04-02T05:41:56.004Z,54.25
2023-04-02T05:42:56.580Z,54.27
2023-04-02T05:43:56.163Z,54.16
2023-04-02T05:44:56.237Z,54.04
2023-04-02T05:45:56.303Z,53.80
2023-04-02T05:46:56.475Z,53.77
2023-04-02T05:47:56.443Z,54.22
2023-04-02T05:48:56.495Z,54.32
2023-04-02T05:49:56.521Z,54.23
2023-04-02T05:50:56.526Z,54.06
2023-04-02T05:51:57.611Z,54.05
2023-04-02T05:52:56.588Z,53.96
2023-04-02T05:53:56.624Z,53.88
2023-04-02T05:54:56.688Z,53.77
2023-04-02T05:55:56.662Z,53.79
2023-04-02T05:56:56.730Z,53.79
2023-04-02T05:58:21.229Z,53.77
2023-04-02T05:58:57.733Z,53.53
2023-04-02T05:59:56.661Z,53.31
2023-04-02T06:00:56.632Z,53.19
2023-04-02T06:01:56.658Z,53.21
2023-04-02T06:02:56.780Z,53.23
2023-04-02T06:03:56.752Z,53.38
2023-04-02T06:04:56.733Z,53.44
2023-04-02T06:05:56.658Z,53.55
2023-04-02T06:06:56.685Z,53.53
2023-04-02T06:07:56.636Z,53.38
2023-04-02T06:08:56.642Z,53.12
2023-04-02T06:09:56.636Z,52.97
2023-04-02T06:10:57.676Z,52.75
2023-04-02T06:11:56.768Z,52.63
2023-04-02T06:12:56.742Z,53.21
2023-04-02T06:13:56.697Z,53.79
2023-04-02T06:14:56.751Z,53.81
2023-04-02T06:15:56.752Z,54.09
2023-04-02T06:16:56.803Z,53.91
2023-04-02T06:17:56.726Z,53.75
2023-04-02T06:18:56.688Z,53.91
2023-04-02T06:19:56.767Z,54.03
2023-04-02T06:20:56.672Z,53.80
2023-04-02T06:21:56.631Z,53.39
2023-04-02T06:22:56.633Z,52.85
2023-04-02T06:23:56.786Z,52.54
2023-04-02T06:24:56.655Z,52.43
2023-04-02T06:25:56.612Z,52.18
2023-04-02T06:26:56.671Z,52.03
2023-04-02T06:27:56.630Z,51.89
2023-04-02T06:28:56.726Z,51.83
2023-04-02T06:29:56.640Z,51.62
2023-04-02T06:30:56.627Z,51.69
2023-04-02T06:31:56.584Z,51.45
2023-04-02T06:32:56.634Z,51.54
2023-04-02T06:33:56.606Z,51.53
2023-04-02T06:34:56.789Z,51.57
2023-04-02T06:35:56.690Z,51.44
2023-04-02T06:36:56.689Z,51.42
2023-04-02T06:37:56.699Z,52.26
2023-04-02T06:38:56.754Z,52.15
2023-04-02T06:39:56.794Z,52.01
2023-04-02T06:40:58.745Z,52.20
2023-04-02T06:41:56.800Z,52.17
2023-04-02T06:42:56.922Z,52.30
2023-04-02T06:43:56.931Z,52.35
2023-04-02T06:44:56.992Z,52.22
2023-04-02T06:45:56.986Z,52.06
2023-04-02T06:46:58.004Z,52.09
2023-04-02T06:47:57.182Z,52.24
2023-04-02T06:48:57.085Z,52.12
2023-04-02T06:49:57.128Z,52.00
2023-04-02T06:50:57.019Z,52.06
2023-04-02T06:51:56.998Z,51.99
2023-04-02T06:52:57.103Z,52.19
2023-04-02T06:53:57.018Z,52.40
2023-04-02T06:54:57.068Z,52.34
2023-04-02T06:55:57.089Z,51.69
2023-04-02T06:56:56.962Z,51.64
2023-04-02T06:57:56.980Z,51.71
2023-04-02T06:58:56.984Z,51.67
2023-04-02T06:59:56.955Z,51.48
2023-04-02T07:00:57.444Z,51.52
2023-04-02T07:01:57.032Z,51.82
2023-04-02T07:02:57.067Z,52.20
2023-04-02T07:03:56.981Z,52.49
2023-04-02T07:04:57.025Z,52.87
2023-04-02T07:05:56.914Z,53.33
2023-04-02T07:06:56.922Z,52.70
2023-04-02T07:07:56.996Z,52.86
2023-04-02T07:08:56.913Z,52.90
2023-04-02T07:09:56.873Z,52.71
2023-04-02T07:10:56.845Z,52.18
2023-04-02T07:11:56.876Z,51.75
2023-04-02T07:12:56.882Z,51.53
2023-04-02T07:13:56.871Z,51.02
2023-04-02T07:14:56.849Z,50.58
2023-04-02T07:15:56.864Z,50.72
2023-04-02T07:16:56.939Z,50.62
2023-04-02T07:17:56.889Z,50.19
2023-04-02T07:18:56.818Z,49.89
2023-04-02T07:19:56.847Z,49.47
2023-04-02T07:20:56.817Z,49.02
2023-04-02T07:21:56.841Z,48.84
2023-04-02T07:22:56.847Z,48.71
2023-04-02T07:23:56.887Z,48.24
2023-04-02T07:24:56.821Z,48.41
2023-04-02T07:25:56.817Z,48.48
2023-04-02T07:26:56.789Z,48.39
2023-04-02T07:27:56.813Z,48.29
2023-04-02T07:28:56.805Z,48.49
2023-04-02T07:29:56.800Z,48.17
2023-04-02T07:30:56.781Z,48.24
2023-04-02T07:31:56.858Z,48.54
2023-04-02T07:32:56.900Z,48.59
2023-04-02T07:33:56.872Z,47.94
2023-04-02T07:34:56.798Z,47.88
2023-04-02T07:35:56.812Z,47.45
2023-04-02T07:36:56.772Z,47.53
2023-04-02T07:37:56.801Z,47.69
2023-04-02T07:38:56.831Z,47.23
2023-04-02T07:39:56.744Z,47.43
2023-04-02T07:40:56.789Z,47.39
2023-04-02T07:41:56.790Z,47.64
2023-04-02T07:42:56.824Z,47.87
2023-04-02T07:43:56.845Z,48.50
2023-04-02T07:44:56.878Z,48.78
2023-04-02T07:45:56.910Z,48.99
2023-04-02T07:46:56.960Z,48.76
2023-04-02T07:47:56.979Z,48.12
2023-04-02T07:48:57.021Z,47.43
2023-04-02T07:49:57.124Z,46.49
2023-04-02T07:50:57.030Z,46.45
2023-04-02T07:51:57.023Z,46.21
2023-04-02T07:52:57.038Z,45.70
2023-04-02T07:53:57.051Z,45.28
2023-04-02T07:54:57.068Z,45.28
2023-04-02T07:55:57.050Z,45.19
2023-04-02T07:56:57.098Z,44.88
2023-04-02T07:57:57.131Z,44.45
2023-04-02T07:58:57.042Z,44.55
2023-04-02T07:59:57.159Z,44.85
2023-04-02T08:00:57.071Z,45.01
2023-04-02T08:01:57.118Z,45.23
2023-04-02T08:02:57.239Z,45.90
2023-04-02T08:03:57.031Z,45.85
2023-04-02T08:04:57.065Z,45.30
2023-04-02T08:05:56.903Z,44.74
2023-04-02T08:06:56.922Z,44.03
2023-04-02T08:07:57.080Z,43.74
2023-04-02T08:08:57.009Z,43.51
2023-04-02T08:09:56.924Z,43.16
2023-04-02T08:10:57.462Z,42.34
2023-04-02T08:11:57.636Z,42.06
2023-04-02T08:12:56.964Z,41.53
2023-04-02T08:13:56.924Z,40.83
2023-04-02T08:14:56.969Z,40.11
2023-04-02T08:15:56.878Z,39.44
2023-04-02T08:16:56.921Z,39.18
2023-04-02T08:17:57.005Z,39.19
2023-04-02T08:18:56.910Z,39.20
2023-04-02T08:19:56.878Z,39.10
2023-04-02T08:20:56.991Z,38.96
2023-04-02T08:21:56.869Z,38.71
2023-04-02T08:22:56.951Z,38.51
2023-04-02T08:23:56.970Z,38.38
2023-04-02T08:24:56.958Z,38.53
2023-04-02T08:25:56.950Z,38.52
2023-04-02T08:26:56.960Z,38.40
2023-04-02T08:27:57.486Z,38.25
2023-04-02T08:28:57.016Z,38.23
2023-04-02T08:29:57.283Z,37.94
2023-04-02T08:30:56.993Z,37.70
2023-04-02T08:31:56.963Z,37.20
2023-04-02T08:32:57.017Z,36.87
2023-04-02T08:33:56.971Z,36.62
2023-04-02T08:34:56.980Z,36.49
2023-04-02T08:35:56.916Z,37.00
2023-04-02T08:36:56.847Z,37.33
2023-04-02T08:37:56.917Z,37.89
2023-04-02T08:38:56.973Z,38.61
2023-04-02T08:39:56.856Z,38.50
2023-04-02T08:40:57.751Z,39.01
2023-04-02T08:41:56.950Z,38.97
2023-04-02T08:42:56.955Z,38.48
2023-04-02T08:43:56.997Z,38.29
2023-04-02T08:44:57.199Z,38.06
2023-04-02T08:45:57.194Z,37.68
2023-04-02T08:46:57.169Z,37.75
2023-04-02T08:47:57.241Z,37.77
2023-04-02T08:48:57.220Z,37.49
2023-04-02T08:49:57.123Z,36.98
2023-04-02T08:50:57.072Z,36.71
2023-04-02T08:51:57.097Z,36.48
2023-04-02T08:52:57.086Z,36.64
2023-04-02T08:53:58.069Z,37.26
2023-04-02T08:54:57.067Z,36.74
2023-04-02T08:55:58.004Z,36.44
2023-04-02T08:56:57.931Z,36.06
2023-04-02T08:57:57.093Z,35.78
2023-04-02T08:58:56.981Z,35.37
2023-04-02T08:59:57.046Z,35.17
2023-04-02T09:00:57.023Z,35.28
2023-04-02T09:01:57.060Z,35.82
2023-04-02T09:02:57.023Z,35.33
2023-04-02T09:03:57.014Z,35.01
2023-04-02T09:04:57.057Z,34.75
2023-04-02T09:05:57.092Z,34.82
2023-04-02T09:06:56.940Z,35.52
2023-04-02T09:07:57.031Z,35.39
2023-04-02T09:08:56.977Z,34.86
2023-04-02T09:09:56.944Z,34.29
2023-04-02T09:10:56.970Z,34.09
2023-04-02T09:11:56.945Z,34.59
2023-04-02T09:12:56.962Z,34.76
2023-04-02T09:13:56.935Z,35.25
2023-04-02T09:14:57.462Z,35.25
2023-04-02T09:15:56.918Z,35.03
2023-04-02T09:16:56.907Z,35.04
2023-04-02T09:17:58.986Z,34.33
2023-04-02T09:18:56.906Z,34.14
2023-04-02T09:19:56.950Z,34.07
2023-04-02T09:20:56.961Z,33.83
2023-04-02T09:21:56.919Z,33.54
2023-04-02T09:22:56.937Z,33.77
2023-04-02T09:23:57.002Z,33.82
2023-04-02T09:24:56.855Z,33.94
2023-04-02T09:26:04.184Z,34.12
2023-04-02T09:26:57.881Z,34.48
2023-04-02T09:27:56.871Z,33.76
2023-04-02T09:28:56.869Z,33.65
2023-04-02T09:29:56.894Z,34.28
2023-04-02T09:30:56.852Z,33.59
2023-04-02T09:31:56.902Z,33.04
2023-04-02T09:32:57.038Z,32.26
2023-04-02T09:33:56.949Z,31.35
2023-04-02T09:34:56.849Z,31.17
2023-04-02T09:35:56.861Z,31.48
2023-04-02T09:36:56.834Z,31.43
2023-04-02T09:37:56.769Z,31.06
2023-04-02T09:38:56.902Z,31.07
2023-04-02T09:39:56.846Z,32.02
2023-04-02T09:40:56.825Z,32.87
2023-04-02T09:42:04.915Z,33.54
2023-04-02T09:42:57.752Z,33.49
2023-04-02T09:43:56.778Z,33.98
2023-04-02T09:44:56.772Z,33.71
2023-04-02T09:45:56.759Z,33.60
2023-04-02T09:46:56.812Z,33.72
2023-04-02T09:47:56.782Z,33.35
2023-04-02T09:48:56.710Z,32.95
2023-04-02T09:49:56.722Z,32.79
2023-04-02T09:50:56.953Z,32.53
2023-04-02T09:51:56.796Z,32.26
2023-04-02T09:52:56.858Z,32.02
2023-04-02T09:53:56.894Z,31.88
2023-04-02T09:54:56.894Z,31.97
2023-04-02T09:55:56.899Z,32.13
2023-04-02T09:56:56.989Z,32.01
2023-04-02T09:57:57.014Z,31.94
2023-04-02T09:58:57.103Z,32.07
2023-04-02T09:59:57.060Z,32.20
2023-04-02T10:00:57.117Z,32.36
2023-04-02T10:01:57.101Z,32.66
2023-04-02T10:02:57.145Z,33.45
2023-04-02T10:03:57.226Z,33.69
2023-04-02T10:04:57.184Z,34.09
2023-04-02T10:05:57.280Z,33.53
2023-04-02T10:06:57.247Z,33.03
2023-04-02T10:07:57.242Z,33.05
2023-04-02T10:08:57.313Z,33.27
2023-04-02T10:09:57.354Z,33.50
2023-04-02T10:10:57.318Z,33.59
2023-04-02T10:11:57.261Z,33.72
2023-04-02T10:12:57.291Z,33.81
2023-04-02T10:13:57.289Z,33.42
2023-04-02T10:14:57.356Z,32.91
2023-04-02T10:15:57.365Z,32.51
2023-04-02T10:16:57.383Z,32.32
2023-04-02T10:17:57.324Z,32.33
2023-04-02T10:18:57.460Z,32.25
2023-04-02T10:19:57.488Z,32.42
2023-04-02T10:20:57.443Z,32.04
2023-04-02T10:21:57.584Z,31.70
2023-04-02T10:22:57.589Z,31.48
2023-04-02T10:23:57.720Z,31.09
2023-04-02T10:24:57.761Z,30.91
2023-04-02T10:25:57.782Z,30.63
2023-04-02T10:26:57.842Z,30.30
2023-04-02T10:27:57.790Z,30.67
2023-04-02T10:28:57.971Z,30.04
2023-04-02T10:29:57.877Z,30.19
2023-04-02T10:30:58.009Z,30.51
2023-04-02T10:31:58.024Z,30.32
2023-04-02T10:32:57.968Z,30.21
2023-04-02T10:33:57.959Z,29.84
2023-04-02T10:34:58.005Z,29.65
2023-04-02T10:35:58.018Z,29.85
2023-04-02T10:36:57.943Z,29.77
2023-04-02T10:37:57.945Z,29.73
2023-04-02T10:38:57.984Z,29.76
2023-04-02T10:39:57.949Z,29.94
2023-04-02T10:40:57.958Z,30.13
2023-04-02T10:41:57.977Z,29.96
2023-04-02T10:42:58.023Z,30.09
2023-04-02T10:44:06.163Z,30.60
2023-04-02T10:44:58.982Z,31.02
2023-04-02T10:45:58.038Z,31.04
2023-04-02T10:46:58.037Z,30.94
2023-04-02T10:47:57.964Z,30.97
2023-04-02T10:48:58.042Z,31.01
2023-04-02T10:49:58.003Z,31.42
2023-04-02T10:50:58.008Z,31.15
2023-04-02T10:51:58.033Z,31.10
2023-04-02T10:52:58.055Z,31.06
2023-04-02T10:53:58.022Z,30.93
2023-04-02T10:54:58.083Z,30.79
2023-04-02T10:55:58.169Z,30.88
2023-04-02T10:56:58.295Z,30.83
2023-04-02T10:57:58.134Z,30.93
2023-04-02T10:58:58.216Z,30.97
2023-04-02T10:59:58.269Z,31.02
2023-04-02T11:00:58.223Z,30.80
2023-04-02T11:01:58.329Z,30.88
2023-04-02T11:02:58.344Z,30.53
2023-04-02T11:03:58.464Z,30.70
2023-04-02T11:04:59.920Z,30.79
2023-04-02T11:05:58.461Z,31.08
2023-04-02T11:07:11.172Z,31.41
2023-04-02T11:07:59.453Z,31.38
2023-04-02T11:08:58.431Z,31.18
2023-04-02T11:09:58.392Z,30.88
2023-04-02T11:10:58.400Z,30.57
2023-04-02T11:11:58.394Z,30.79
2023-04-02T11:12:58.356Z,30.74
2023-04-02T11:13:58.413Z,30.77
2023-04-02T11:14:58.353Z,30.60
2023-04-02T11:15:58.459Z,31.01
2023-04-02T11:16:58.346Z,30.60
2023-04-02T11:17:58.426Z,30.33
2023-04-02T11:18:58.477Z,30.24
2023-04-02T11:19:58.472Z,30.18
2023-04-02T11:20:58.475Z,30.78
2023-04-02T11:21:59.887Z,30.41
2023-04-02T11:22:58.590Z,30.94
2023-04-02T11:23:58.624Z,30.17
2023-04-02T11:24:58.697Z,30.13
2023-04-02T11:25:58.703Z,30.11
2023-04-02T11:26:58.730Z,30.05
2023-04-02T11:27:58.801Z,29.92
2023-04-02T11:28:58.837Z,30.19
2023-04-02T11:29:58.853Z,30.32
2023-04-02T11:30:58.910Z,30.44
2023-04-02T11:31:58.939Z,30.09
2023-04-02T11:32:59.023Z,30.19
2023-04-02T11:33:59.024Z,30.01
2023-04-02T11:35:06.370Z,29.88
2023-04-02T11:36:00.057Z,29.90
2023-04-02T11:36:58.992Z,29.98
2023-04-02T11:37:58.993Z,30.07
2023-04-02T11:39:04.603Z,29.97
2023-04-02T11:39:58.960Z,29.83
2023-04-02T11:40:59.061Z,29.84
2023-04-02T11:41:59.020Z,29.90
2023-04-02T11:42:58.973Z,30.04
2023-04-02T11:43:58.979Z,29.93
2023-04-02T11:44:59.012Z,30.21
2023-04-02T11:45:59.308Z,30.25
2023-04-02T11:46:59.059Z,31.02
2023-04-02T11:48:00.033Z,30.76
2023-04-02T11:48:58.920Z,31.18
2023-04-02T11:49:58.985Z,31.14
2023-04-02T11:50:58.999Z,31.55
2023-04-02T11:52:10.932Z,31.34
2023-04-02T11:52:58.907Z,31.39
2023-04-02T11:53:58.925Z,31.05
2023-04-02T11:54:58.894Z,31.11
2023-04-02T11:55:58.879Z,30.97
2023-04-02T11:56:58.995Z,31.10
2023-04-02T11:57:58.940Z,31.31
2023-04-02T11:58:58.904Z,31.18
2023-04-02T11:59:58.849Z,31.14
2023-04-02T12:00:58.887Z,30.86
2023-04-02T12:01:58.932Z,30.75
2023-04-02T12:02:58.882Z,30.65
2023-04-02T12:03:58.903Z,30.51
2023-04-02T12:04:58.926Z,30.08
2023-04-02T12:05:58.875Z,30.05
2023-04-02T12:06:58.868Z,30.41
2023-04-02T12:07:58.920Z,30.02
2023-04-02T12:08:58.890Z,30.43
2023-04-02T12:09:58.980Z,30.13
2023-04-02T12:10:58.967Z,29.93
2023-04-02T12:11:59.029Z,30.28
2023-04-02T12:12:59.177Z,30.83
2023-04-02T12:13:59.201Z,31.07
2023-04-02T12:14:59.256Z,30.68
2023-04-02T12:15:59.264Z,30.29
2023-04-02T12:16:59.331Z,29.90
2023-04-02T12:17:59.308Z,29.87
2023-04-02T12:18:59.429Z,30.08
2023-04-02T12:19:59.454Z,30.26
2023-04-02T12:20:59.437Z,30.20
2023-04-02T12:21:59.482Z,30.18
2023-04-02T12:22:59.611Z,30.08
2023-04-02T12:23:59.643Z,29.69
2023-04-02T12:24:59.665Z,29.37
2023-04-02T12:25:59.743Z,29.17
2023-04-02T12:26:59.725Z,29.25
2023-04-02T12:27:59.833Z,29.71
2023-04-02T12:28:59.848Z,29.49
2023-04-02T12:29:59.909Z,29.81
2023-04-02T12:31:00.081Z,29.39
2023-04-02T12:32:00.121Z,29.62
2023-04-02T12:33:01.010Z,29.52
2023-04-02T12:34:00.136Z,30.03
2023-04-02T12:35:00.169Z,30.31
2023-04-02T12:36:00.211Z,30.36
2023-04-02T12:37:00.116Z,30.83
2023-04-02T12:38:00.159Z,31.25
2023-04-02T12:39:00.120Z,31.50
2023-04-02T12:40:00.071Z,31.24
2023-04-02T12:41:00.143Z,30.90
2023-04-02T12:42:00.078Z,31.64
2023-04-02T12:43:00.116Z,31.45
2023-04-02T12:44:00.063Z,31.55
2023-04-02T12:45:00.107Z,31.47
2023-04-02T12:46:00.179Z,31.77
2023-04-02T12:47:00.233Z,31.75
2023-04-02T12:48:00.258Z,31.58
2023-04-02T12:49:00.294Z,31.90
2023-04-02T12:50:00.334Z,31.92
2023-04-02T12:51:00.287Z,32.34
2023-04-02T12:52:00.321Z,32.54
2023-04-02T12:53:00.420Z,32.61